sensor_id;sensor_type;location;lat;lon;timestamp;P1;durP1;ratioP1;P2;durP2;ratioP2
74632;SDS011;63139;52.018;8.552;2023-07-22T00:00:45;33.10;;;15.75;;
74632;SDS011;63139;52.018;8.552;2023-07-22T00:03:13;30.48;;;15.63;;
74632;SDS011;63139;52.018;8.552;2023-07-22T00:05:41;32.33;;;17.15;;
74632;SDS011;63139;52.018;8.552;2023-07-22T00:08:10;26.88;;;14.45;;
74632;SDS011;63139;52.018;8.552;2023-07-22T00:10:41;34.50;;;18.00;;
74632;SDS011;63139;52.018;8.552;2023-07-22T00:13:09;29.83;;;14.25;;
74632;SDS011;63139;52.018;8.552;2023-07-22T00:15:37;27.55;;;13.77;;
74632;SDS011;63139;52.018;8.552;2023-07-22T00:18:05;28.63;;;15.00;;
74632;SDS011;63139;52.018;8.552;2023-07-22T00:20:33;29.80;;;14.02;;
74632;SDS011;63139;52.018;8.552;2023-07-22T00:23:01;29.42;;;14.82;;
74632;SDS011;63139;52.018;8.552;2023-07-22T00:25:29;31.33;;;15.93;;
74632;SDS011;63139;52.018;8.552;2023-07-22T00:27:58;29.70;;;13.88;;
74632;SDS011;63139;52.018;8.552;2023-07-22T00:30:26;28.52;;;14.63;;
74632;SDS011;63139;52.018;8.552;2023-07-22T00:32:54;26.58;;;14.20;;
74632;SDS011;63139;52.018;8.552;2023-07-22T00:35:22;25.38;;;13.57;;
74632;SDS011;63139;52.018;8.552;2023-07-22T00:37:50;25.23;;;13.88;;
74632;SDS011;63139;52.018;8.552;2023-07-22T00:40:18;22.17;;;11.93;;
74632;SDS011;63139;52.018;8.552;2023-07-22T00:42:46;23.95;;;13.48;;
74632;SDS011;63139;52.018;8.552;2023-07-22T00:45:15;21.20;;;12.02;;
74632;SDS011;63139;52.018;8.552;2023-07-22T00:47:44;25.52;;;13.05;;
74632;SDS011;63139;52.018;8.552;2023-07-22T00:50:12;24.90;;;12.65;;
74632;SDS011;63139;52.018;8.552;2023-07-22T00:52:41;22.00;;;11.88;;
74632;SDS011;63139;52.018;8.552;2023-07-22T00:55:09;26.13;;;13.80;;
74632;SDS011;63139;52.018;8.552;2023-07-22T00:57:37;24.02;;;13.38;;
74632;SDS011;63139;52.018;8.552;2023-07-22T01:00:06;20.73;;;11.13;;
74632;SDS011;63139;52.018;8.552;2023-07-22T01:02:39;18.42;;;11.20;;
74632;SDS011;63139;52.018;8.552;2023-07-22T01:05:09;25.48;;;12.35;;
74632;SDS011;63139;52.018;8.552;2023-07-22T01:07:38;21.38;;;11.43;;
74632;SDS011;63139;52.018;8.552;2023-07-22T01:10:07;18.27;;;10.25;;
74632;SDS011;63139;52.018;8.552;2023-07-22T01:12:36;16.63;;;9.95;;
74632;SDS011;63139;52.018;8.552;2023-07-22T01:15:05;21.92;;;11.02;;
74632;SDS011;63139;52.018;8.552;2023-07-22T01:17:35;18.08;;;9.80;;
74632;SDS011;63139;52.018;8.552;2023-07-22T01:20:06;18.20;;;10.02;;
74632;SDS011;63139;52.018;8.552;2023-07-22T01:22:36;16.95;;;9.55;;
74632;SDS011;63139;52.018;8.552;2023-07-22T01:25:07;18.40;;;9.75;;
74632;SDS011;63139;52.018;8.552;2023-07-22T01:27:35;21.17;;;11.48;;
74632;SDS011;63139;52.018;8.552;2023-07-22T01:30:03;22.88;;;12.50;;
74632;SDS011;63139;52.018;8.552;2023-07-22T01:32:33;25.52;;;12.23;;
74632;SDS011;63139;52.018;8.552;2023-07-22T01:35:01;25.08;;;13.13;;
74632;SDS011;63139;52.018;8.552;2023-07-22T01:37:29;23.25;;;12.00;;
74632;SDS011;63139;52.018;8.552;2023-07-22T01:39:58;23.20;;;11.82;;
74632;SDS011;63139;52.018;8.552;2023-07-22T01:42:27;20.88;;;11.20;;
74632;SDS011;63139;52.018;8.552;2023-07-22T01:44:55;21.85;;;11.75;;
74632;SDS011;63139;52.018;8.552;2023-07-22T01:47:23;19.88;;;10.88;;
74632;SDS011;63139;52.018;8.552;2023-07-22T01:49:52;22.20;;;11.20;;
74632;SDS011;63139;52.018;8.552;2023-07-22T01:52:20;14.07;;;8.27;;
74632;SDS011;63139;52.018;8.552;2023-07-22T01:54:47;16.83;;;9.20;;
74632;SDS011;63139;52.018;8.552;2023-07-22T01:57:15;19.00;;;9.57;;
74632;SDS011;63139;52.018;8.552;2023-07-22T01:59:44;18.88;;;10.10;;
74632;SDS011;63139;52.018;8.552;2023-07-22T02:02:12;19.40;;;9.65;;
74632;SDS011;63139;52.018;8.552;2023-07-22T02:04:40;19.48;;;10.15;;
74632;SDS011;63139;52.018;8.552;2023-07-22T02:07:08;19.40;;;9.63;;
74632;SDS011;63139;52.018;8.552;2023-07-22T02:09:36;16.60;;;9.10;;
74632;SDS011;63139;52.018;8.552;2023-07-22T02:12:04;16.63;;;9.85;;
74632;SDS011;63139;52.018;8.552;2023-07-22T02:14:34;17.15;;;9.40;;
74632;SDS011;63139;52.018;8.552;2023-07-22T02:17:04;17.05;;;9.77;;
74632;SDS011;63139;52.018;8.552;2023-07-22T02:19:35;18.13;;;9.70;;
74632;SDS011;63139;52.018;8.552;2023-07-22T02:22:04;15.75;;;8.82;;
74632;SDS011;63139;52.018;8.552;2023-07-22T02:24:32;11.57;;;7.95;;
74632;SDS011;63139;52.018;8.552;2023-07-22T02:27:00;14.10;;;9.05;;
74632;SDS011;63139;52.018;8.552;2023-07-22T02:29:28;15.13;;;9.25;;
74632;SDS011;63139;52.018;8.552;2023-07-22T02:31:57;14.13;;;8.30;;
74632;SDS011;63139;52.018;8.552;2023-07-22T02:34:27;15.55;;;8.48;;
74632;SDS011;63139;52.018;8.552;2023-07-22T02:36:56;13.30;;;8.18;;
74632;SDS011;63139;52.018;8.552;2023-07-22T02:39:24;16.35;;;8.95;;
74632;SDS011;63139;52.018;8.552;2023-07-22T02:41:52;18.55;;;8.88;;
74632;SDS011;63139;52.018;8.552;2023-07-22T02:44:20;14.90;;;8.73;;
74632;SDS011;63139;52.018;8.552;2023-07-22T02:46:48;14.52;;;8.80;;
74632;SDS011;63139;52.018;8.552;2023-07-22T02:49:16;14.13;;;8.40;;
74632;SDS011;63139;52.018;8.552;2023-07-22T02:51:45;21.35;;;9.02;;
74632;SDS011;63139;52.018;8.552;2023-07-22T02:54:14;16.65;;;8.88;;
74632;SDS011;63139;52.018;8.552;2023-07-22T02:56:42;20.42;;;9.55;;
74632;SDS011;63139;52.018;8.552;2023-07-22T02:59:10;18.90;;;9.32;;
74632;SDS011;63139;52.018;8.552;2023-07-22T03:01:38;18.23;;;9.48;;
74632;SDS011;63139;52.018;8.552;2023-07-22T03:04:06;15.45;;;9.55;;
74632;SDS011;63139;52.018;8.552;2023-07-22T03:06:34;17.23;;;9.52;;
74632;SDS011;63139;52.018;8.552;2023-07-22T03:09:03;16.50;;;10.05;;
74632;SDS011;63139;52.018;8.552;2023-07-22T03:11:33;17.08;;;9.93;;
74632;SDS011;63139;52.018;8.552;2023-07-22T03:14:01;12.25;;;8.52;;
74632;SDS011;63139;52.018;8.552;2023-07-22T03:16:29;17.25;;;10.02;;
74632;SDS011;63139;52.018;8.552;2023-07-22T03:18:58;17.25;;;10.05;;
74632;SDS011;63139;52.018;8.552;2023-07-22T03:21:26;16.50;;;9.30;;
74632;SDS011;63139;52.018;8.552;2023-07-22T03:23:54;14.70;;;9.15;;
74632;SDS011;63139;52.018;8.552;2023-07-22T03:26:23;21.50;;;11.30;;
74632;SDS011;63139;52.018;8.552;2023-07-22T03:28:51;17.80;;;10.30;;
74632;SDS011;63139;52.018;8.552;2023-07-22T03:31:19;16.52;;;9.27;;
74632;SDS011;63139;52.018;8.552;2023-07-22T03:33:47;16.33;;;9.68;;
74632;SDS011;63139;52.018;8.552;2023-07-22T03:36:16;21.45;;;10.32;;
74632;SDS011;63139;52.018;8.552;2023-07-22T03:38:44;20.30;;;11.07;;
74632;SDS011;63139;52.018;8.552;2023-07-22T03:41:12;18.52;;;9.40;;
74632;SDS011;63139;52.018;8.552;2023-07-22T03:43:41;18.58;;;10.95;;
74632;SDS011;63139;52.018;8.552;2023-07-22T03:46:09;15.82;;;9.73;;
74632;SDS011;63139;52.018;8.552;2023-07-22T03:48:37;18.63;;;10.10;;
74632;SDS011;63139;52.018;8.552;2023-07-22T03:51:05;18.55;;;10.70;;
74632;SDS011;63139;52.018;8.552;2023-07-22T03:53:45;24.92;;;11.90;;
74632;SDS011;63139;52.018;8.552;2023-07-22T03:56:13;18.30;;;11.20;;
74632;SDS011;63139;52.018;8.552;2023-07-22T03:58:42;22.52;;;11.35;;
74632;SDS011;63139;52.018;8.552;2023-07-22T04:01:10;21.98;;;11.77;;
74632;SDS011;63139;52.018;8.552;2023-07-22T04:03:40;19.85;;;10.75;;
74632;SDS011;63139;52.018;8.552;2023-07-22T04:06:08;18.40;;;10.57;;
74632;SDS011;63139;52.018;8.552;2023-07-22T04:08:36;18.80;;;10.85;;
74632;SDS011;63139;52.018;8.552;2023-07-22T04:11:04;20.05;;;11.00;;
74632;SDS011;63139;52.018;8.552;2023-07-22T04:13:32;18.77;;;10.75;;
74632;SDS011;63139;52.018;8.552;2023-07-22T04:16:01;19.55;;;10.75;;
74632;SDS011;63139;52.018;8.552;2023-07-22T04:18:29;18.05;;;9.45;;
74632;SDS011;63139;52.018;8.552;2023-07-22T04:21:00;23.88;;;11.15;;
74632;SDS011;63139;52.018;8.552;2023-07-22T04:23:28;23.88;;;11.63;;
74632;SDS011;63139;52.018;8.552;2023-07-22T04:26:01;17.27;;;10.38;;
74632;SDS011;63139;52.018;8.552;2023-07-22T04:28:31;21.17;;;10.88;;
74632;SDS011;63139;52.018;8.552;2023-07-22T04:30:59;23.20;;;13.00;;
74632;SDS011;63139;52.018;8.552;2023-07-22T04:33:28;19.40;;;10.68;;
74632;SDS011;63139;52.018;8.552;2023-07-22T04:35:58;18.83;;;11.35;;
74632;SDS011;63139;52.018;8.552;2023-07-22T04:38:27;25.70;;;12.82;;
74632;SDS011;63139;52.018;8.552;2023-07-22T04:40:55;19.25;;;11.30;;
74632;SDS011;63139;52.018;8.552;2023-07-22T04:43:23;21.58;;;11.50;;
74632;SDS011;63139;52.018;8.552;2023-07-22T04:45:51;16.92;;;10.35;;
74632;SDS011;63139;52.018;8.552;2023-07-22T04:48:20;20.13;;;11.48;;
74632;SDS011;63139;52.018;8.552;2023-07-22T04:50:50;17.20;;;10.02;;
74632;SDS011;63139;52.018;8.552;2023-07-22T04:53:18;19.27;;;10.95;;
74632;SDS011;63139;52.018;8.552;2023-07-22T04:55:49;17.27;;;10.20;;
74632;SDS011;63139;52.018;8.552;2023-07-22T04:58:17;17.20;;;10.75;;
74632;SDS011;63139;52.018;8.552;2023-07-22T05:00:46;18.98;;;10.43;;
74632;SDS011;63139;52.018;8.552;2023-07-22T05:03:14;20.23;;;11.70;;
74632;SDS011;63139;52.018;8.552;2023-07-22T05:05:44;16.90;;;10.35;;
74632;SDS011;63139;52.018;8.552;2023-07-22T05:08:12;23.38;;;12.10;;
74632;SDS011;63139;52.018;8.552;2023-07-22T05:10:40;18.40;;;10.85;;
74632;SDS011;63139;52.018;8.552;2023-07-22T05:13:08;20.48;;;10.93;;
74632;SDS011;63139;52.018;8.552;2023-07-22T05:15:36;18.60;;;9.95;;
74632;SDS011;63139;52.018;8.552;2023-07-22T05:18:04;20.40;;;10.35;;
74632;SDS011;63139;52.018;8.552;2023-07-22T05:20:32;16.63;;;9.85;;
74632;SDS011;63139;52.018;8.552;2023-07-22T05:23:01;18.10;;;10.65;;
74632;SDS011;63139;52.018;8.552;2023-07-22T05:25:29;21.55;;;11.50;;
74632;SDS011;63139;52.018;8.552;2023-07-22T05:27:56;14.63;;;8.75;;
74632;SDS011;63139;52.018;8.552;2023-07-22T05:30:24;15.50;;;9.73;;
74632;SDS011;63139;52.018;8.552;2023-07-22T05:33:01;13.77;;;9.10;;
74632;SDS011;63139;52.018;8.552;2023-07-22T05:35:29;18.42;;;10.95;;
74632;SDS011;63139;52.018;8.552;2023-07-22T05:37:57;18.60;;;11.20;;
74632;SDS011;63139;52.018;8.552;2023-07-22T05:40:26;17.15;;;9.90;;
74632;SDS011;63139;52.018;8.552;2023-07-22T05:42:54;17.60;;;10.18;;
74632;SDS011;63139;52.018;8.552;2023-07-22T05:45:22;19.85;;;11.07;;
74632;SDS011;63139;52.018;8.552;2023-07-22T05:47:50;16.35;;;10.55;;
74632;SDS011;63139;52.018;8.552;2023-07-22T05:50:18;15.32;;;9.73;;
74632;SDS011;63139;52.018;8.552;2023-07-22T05:52:45;15.77;;;10.23;;
74632;SDS011;63139;52.018;8.552;2023-07-22T05:55:14;18.15;;;10.95;;
74632;SDS011;63139;52.018;8.552;2023-07-22T05:57:43;19.27;;;10.35;;
74632;SDS011;63139;52.018;8.552;2023-07-22T06:00:12;18.30;;;11.20;;
74632;SDS011;63139;52.018;8.552;2023-07-22T06:02:40;14.75;;;9.20;;
74632;SDS011;63139;52.018;8.552;2023-07-22T06:05:08;18.45;;;10.10;;
74632;SDS011;63139;52.018;8.552;2023-07-22T06:07:36;13.80;;;9.30;;
74632;SDS011;63139;52.018;8.552;2023-07-22T06:10:05;14.45;;;9.35;;
74632;SDS011;63139;52.018;8.552;2023-07-22T06:12:34;14.25;;;9.43;;
74632;SDS011;63139;52.018;8.552;2023-07-22T06:15:04;15.90;;;9.65;;
74632;SDS011;63139;52.018;8.552;2023-07-22T06:17:34;19.00;;;9.85;;
74632;SDS011;63139;52.018;8.552;2023-07-22T06:20:05;15.63;;;9.90;;
74632;SDS011;63139;52.018;8.552;2023-07-22T06:22:34;20.30;;;11.45;;
74632;SDS011;63139;52.018;8.552;2023-07-22T06:25:01;13.13;;;9.18;;
74632;SDS011;63139;52.018;8.552;2023-07-22T06:27:30;14.45;;;9.38;;
74632;SDS011;63139;52.018;8.552;2023-07-22T06:29:58;15.60;;;10.00;;
74632;SDS011;63139;52.018;8.552;2023-07-22T06:32:27;16.63;;;10.18;;
74632;SDS011;63139;52.018;8.552;2023-07-22T06:34:56;14.05;;;9.00;;
74632;SDS011;63139;52.018;8.552;2023-07-22T06:37:24;17.63;;;10.57;;
74632;SDS011;63139;52.018;8.552;2023-07-22T06:39:53;15.40;;;9.85;;
74632;SDS011;63139;52.018;8.552;2023-07-22T06:42:20;17.83;;;10.75;;
74632;SDS011;63139;52.018;8.552;2023-07-22T06:44:48;15.32;;;9.88;;
74632;SDS011;63139;52.018;8.552;2023-07-22T06:47:16;16.23;;;9.82;;
74632;SDS011;63139;52.018;8.552;2023-07-22T06:49:46;16.65;;;9.88;;
74632;SDS011;63139;52.018;8.552;2023-07-22T06:52:14;13.85;;;9.07;;
74632;SDS011;63139;52.018;8.552;2023-07-22T06:54:41;17.20;;;10.48;;
74632;SDS011;63139;52.018;8.552;2023-07-22T06:57:09;14.93;;;9.48;;
74632;SDS011;63139;52.018;8.552;2023-07-22T06:59:37;16.25;;;9.90;;
74632;SDS011;63139;52.018;8.552;2023-07-22T07:02:05;13.15;;;8.63;;
74632;SDS011;63139;52.018;8.552;2023-07-22T07:04:33;16.70;;;9.60;;
74632;SDS011;63139;52.018;8.552;2023-07-22T07:07:03;15.52;;;9.70;;
74632;SDS011;63139;52.018;8.552;2023-07-22T07:09:31;13.77;;;8.77;;
74632;SDS011;63139;52.018;8.552;2023-07-22T07:11:59;17.70;;;9.82;;
74632;SDS011;63139;52.018;8.552;2023-07-22T07:14:27;14.13;;;9.45;;
74632;SDS011;63139;52.018;8.552;2023-07-22T07:16:54;12.90;;;8.98;;
74632;SDS011;63139;52.018;8.552;2023-07-22T07:19:22;12.68;;;9.15;;
74632;SDS011;63139;52.018;8.552;2023-07-22T07:21:50;11.52;;;7.97;;
74632;SDS011;63139;52.018;8.552;2023-07-22T07:24:19;14.52;;;9.18;;
74632;SDS011;63139;52.018;8.552;2023-07-22T07:26:47;14.43;;;9.20;;
74632;SDS011;63139;52.018;8.552;2023-07-22T07:29:15;16.42;;;9.10;;
74632;SDS011;63139;52.018;8.552;2023-07-22T07:32:03;12.48;;;8.05;;
74632;SDS011;63139;52.018;8.552;2023-07-22T07:34:31;10.38;;;7.97;;
74632;SDS011;63139;52.018;8.552;2023-07-22T07:36:59;11.70;;;7.57;;
74632;SDS011;63139;52.018;8.552;2023-07-22T07:39:28;10.90;;;7.75;;
74632;SDS011;63139;52.018;8.552;2023-07-22T07:41:56;12.18;;;8.20;;
74632;SDS011;63139;52.018;8.552;2023-07-22T07:44:24;11.68;;;7.70;;
74632;SDS011;63139;52.018;8.552;2023-07-22T07:46:52;14.18;;;8.82;;
74632;SDS011;63139;52.018;8.552;2023-07-22T07:49:20;11.23;;;7.95;;
74632;SDS011;63139;52.018;8.552;2023-07-22T07:51:48;14.35;;;8.43;;
74632;SDS011;63139;52.018;8.552;2023-07-22T07:54:15;12.23;;;8.05;;
74632;SDS011;63139;52.018;8.552;2023-07-22T07:56:45;12.18;;;7.68;;
74632;SDS011;63139;52.018;8.552;2023-07-22T07:59:13;10.57;;;7.53;;
74632;SDS011;63139;52.018;8.552;2023-07-22T08:01:41;13.82;;;8.07;;
74632;SDS011;63139;52.018;8.552;2023-07-22T08:04:09;14.00;;;8.60;;
74632;SDS011;63139;52.018;8.552;2023-07-22T08:06:37;15.68;;;9.15;;
74632;SDS011;63139;52.018;8.552;2023-07-22T08:09:05;13.85;;;9.00;;
74632;SDS011;63139;52.018;8.552;2023-07-22T08:11:32;14.38;;;8.50;;
74632;SDS011;63139;52.018;8.552;2023-07-22T08:14:02;17.15;;;9.60;;
74632;SDS011;63139;52.018;8.552;2023-07-22T08:16:29;12.48;;;9.48;;
74632;SDS011;63139;52.018;8.552;2023-07-22T08:18:57;12.07;;;8.13;;
74632;SDS011;63139;52.018;8.552;2023-07-22T08:21:25;10.18;;;7.20;;
74632;SDS011;63139;52.018;8.552;2023-07-22T08:23:53;14.70;;;9.07;;
74632;SDS011;63139;52.018;8.552;2023-07-22T08:26:21;11.55;;;8.23;;
74632;SDS011;63139;52.018;8.552;2023-07-22T08:28:49;14.30;;;9.13;;
74632;SDS011;63139;52.018;8.552;2023-07-22T08:31:18;13.15;;;8.82;;
74632;SDS011;63139;52.018;8.552;2023-07-22T08:33:46;11.07;;;7.93;;
74632;SDS011;63139;52.018;8.552;2023-07-22T08:36:14;13.98;;;8.50;;
74632;SDS011;63139;52.018;8.552;2023-07-22T08:38:42;9.77;;;7.32;;
74632;SDS011;63139;52.018;8.552;2023-07-22T08:41:13;13.50;;;8.48;;
74632;SDS011;63139;52.018;8.552;2023-07-22T08:43:42;12.90;;;7.93;;
74632;SDS011;63139;52.018;8.552;2023-07-22T08:46:13;14.55;;;8.75;;
74632;SDS011;63139;52.018;8.552;2023-07-22T08:48:44;15.48;;;9.25;;
74632;SDS011;63139;52.018;8.552;2023-07-22T08:51:16;12.10;;;7.97;;
74632;SDS011;63139;52.018;8.552;2023-07-22T08:53:45;14.95;;;8.05;;
74632;SDS011;63139;52.018;8.552;2023-07-22T08:56:34;13.68;;;8.95;;
74632;SDS011;63139;52.018;8.552;2023-07-22T08:59:02;14.82;;;9.13;;
74632;SDS011;63139;52.018;8.552;2023-07-22T09:01:32;12.73;;;8.82;;
74632;SDS011;63139;52.018;8.552;2023-07-22T09:04:04;11.88;;;8.13;;
74632;SDS011;63139;52.018;8.552;2023-07-22T09:06:32;15.02;;;9.50;;
74632;SDS011;63139;52.018;8.552;2023-07-22T09:09:01;13.52;;;8.15;;
74632;SDS011;63139;52.018;8.552;2023-07-22T09:11:33;14.63;;;9.07;;
74632;SDS011;63139;52.018;8.552;2023-07-22T09:14:02;13.20;;;9.00;;
74632;SDS011;63139;52.018;8.552;2023-07-22T09:16:31;16.13;;;9.13;;
74632;SDS011;63139;52.018;8.552;2023-07-22T09:19:00;14.77;;;9.02;;
74632;SDS011;63139;52.018;8.552;2023-07-22T09:21:32;16.27;;;9.25;;
74632;SDS011;63139;52.018;8.552;2023-07-22T09:24:05;15.23;;;8.85;;
74632;SDS011;63139;52.018;8.552;2023-07-22T09:26:48;14.75;;;9.25;;
74632;SDS011;63139;52.018;8.552;2023-07-22T09:29:16;15.73;;;9.50;;
74632;SDS011;63139;52.018;8.552;2023-07-22T09:31:54;13.02;;;8.77;;
74632;SDS011;63139;52.018;8.552;2023-07-22T09:34:23;13.73;;;8.82;;
74632;SDS011;63139;52.018;8.552;2023-07-22T09:36:52;13.75;;;8.70;;
74632;SDS011;63139;52.018;8.552;2023-07-22T09:39:21;13.00;;;8.88;;
74632;SDS011;63139;52.018;8.552;2023-07-22T09:41:49;16.02;;;9.60;;
74632;SDS011;63139;52.018;8.552;2023-07-22T09:44:19;13.57;;;8.57;;
74632;SDS011;63139;52.018;8.552;2023-07-22T09:46:47;11.88;;;8.07;;
74632;SDS011;63139;52.018;8.552;2023-07-22T09:49:17;11.65;;;8.05;;
74632;SDS011;63139;52.018;8.552;2023-07-22T09:51:47;10.95;;;7.72;;
74632;SDS011;63139;52.018;8.552;2023-07-22T09:54:27;10.50;;;7.70;;
74632;SDS011;63139;52.018;8.552;2023-07-22T09:56:57;10.15;;;7.50;;
74632;SDS011;63139;52.018;8.552;2023-07-22T09:59:25;14.20;;;8.38;;
74632;SDS011;63139;52.018;8.552;2023-07-22T10:01:56;11.70;;;7.43;;
74632;SDS011;63139;52.018;8.552;2023-07-22T10:04:29;7.95;;;5.80;;
74632;SDS011;63139;52.018;8.552;2023-07-22T10:07:02;8.30;;;6.50;;
74632;SDS011;63139;52.018;8.552;2023-07-22T10:09:31;7.72;;;6.03;;
74632;SDS011;63139;52.018;8.552;2023-07-22T10:12:01;6.80;;;5.60;;
74632;SDS011;63139;52.018;8.552;2023-07-22T10:14:31;6.03;;;5.38;;
74632;SDS011;63139;52.018;8.552;2023-07-22T10:17:03;6.57;;;5.60;;
74632;SDS011;63139;52.018;8.552;2023-07-22T10:19:32;8.32;;;6.20;;
74632;SDS011;63139;52.018;8.552;2023-07-22T10:22:04;6.53;;;5.40;;
74632;SDS011;63139;52.018;8.552;2023-07-22T10:24:34;7.53;;;5.35;;
74632;SDS011;63139;52.018;8.552;2023-07-22T10:27:03;8.02;;;5.20;;
74632;SDS011;63139;52.018;8.552;2023-07-22T10:29:32;9.32;;;6.00;;
74632;SDS011;63139;52.018;8.552;2023-07-22T10:32:01;7.18;;;5.50;;
74632;SDS011;63139;52.018;8.552;2023-07-22T10:34:31;7.45;;;6.35;;
74632;SDS011;63139;52.018;8.552;2023-07-22T10:36:58;7.18;;;5.75;;
74632;SDS011;63139;52.018;8.552;2023-07-22T10:39:28;9.88;;;5.88;;
74632;SDS011;63139;52.018;8.552;2023-07-22T10:41:59;8.48;;;6.07;;
74632;SDS011;63139;52.018;8.552;2023-07-22T10:44:30;10.88;;;6.18;;
74632;SDS011;63139;52.018;8.552;2023-07-22T10:46:58;8.77;;;6.30;;
74632;SDS011;63139;52.018;8.552;2023-07-22T10:49:28;6.75;;;6.05;;
74632;SDS011;63139;52.018;8.552;2023-07-22T10:52:10;7.28;;;5.70;;
74632;SDS011;63139;52.018;8.552;2023-07-22T10:54:40;12.90;;;5.78;;
74632;SDS011;63139;52.018;8.552;2023-07-22T10:57:24;6.40;;;4.78;;
74632;SDS011;63139;52.018;8.552;2023-07-22T10:59:53;8.07;;;5.40;;
74632;SDS011;63139;52.018;8.552;2023-07-22T11:02:23;6.43;;;5.55;;
74632;SDS011;63139;52.018;8.552;2023-07-22T11:04:55;7.05;;;5.95;;
74632;SDS011;63139;52.018;8.552;2023-07-22T11:07:32;7.25;;;5.50;;
74632;SDS011;63139;52.018;8.552;2023-07-22T11:10:11;7.13;;;6.18;;
74632;SDS011;63139;52.018;8.552;2023-07-22T11:12:43;7.00;;;5.65;;
74632;SDS011;63139;52.018;8.552;2023-07-22T11:15:12;9.13;;;5.75;;
74632;SDS011;63139;52.018;8.552;2023-07-22T11:17:42;5.95;;;5.00;;
74632;SDS011;63139;52.018;8.552;2023-07-22T11:20:10;6.15;;;5.40;;
74632;SDS011;63139;52.018;8.552;2023-07-22T11:22:38;8.05;;;5.68;;
74632;SDS011;63139;52.018;8.552;2023-07-22T11:25:07;8.07;;;5.13;;
74632;SDS011;63139;52.018;8.552;2023-07-22T11:27:36;8.63;;;5.47;;
74632;SDS011;63139;52.018;8.552;2023-07-22T11:30:05;7.50;;;5.60;;
74632;SDS011;63139;52.018;8.552;2023-07-22T11:32:34;6.15;;;5.22;;
74632;SDS011;63139;52.018;8.552;2023-07-22T11:35:02;7.75;;;4.95;;
74632;SDS011;63139;52.018;8.552;2023-07-22T11:37:31;6.65;;;5.20;;
74632;SDS011;63139;52.018;8.552;2023-07-22T11:40:00;8.48;;;5.30;;
74632;SDS011;63139;52.018;8.552;2023-07-22T11:42:28;5.35;;;4.85;;
74632;SDS011;63139;52.018;8.552;2023-07-22T11:44:58;7.35;;;5.25;;
74632;SDS011;63139;52.018;8.552;2023-07-22T11:47:28;7.28;;;5.03;;
74632;SDS011;63139;52.018;8.552;2023-07-22T11:49:56;7.28;;;5.50;;
74632;SDS011;63139;52.018;8.552;2023-07-22T11:52:25;7.18;;;5.50;;
74632;SDS011;63139;52.018;8.552;2023-07-22T11:54:53;7.72;;;5.40;;
74632;SDS011;63139;52.018;8.552;2023-07-22T11:57:21;5.72;;;4.60;;
74632;SDS011;63139;52.018;8.552;2023-07-22T11:59:51;6.95;;;5.15;;
74632;SDS011;63139;52.018;8.552;2023-07-22T12:02:21;5.47;;;4.80;;
74632;SDS011;63139;52.018;8.552;2023-07-22T12:04:51;7.10;;;5.22;;
74632;SDS011;63139;52.018;8.552;2023-07-22T12:07:26;8.02;;;5.47;;
74632;SDS011;63139;52.018;8.552;2023-07-22T12:09:56;6.10;;;4.93;;
74632;SDS011;63139;52.018;8.552;2023-07-22T12:12:31;6.18;;;5.40;;
74632;SDS011;63139;52.018;8.552;2023-07-22T12:15:03;4.95;;;4.45;;
74632;SDS011;63139;52.018;8.552;2023-07-22T12:17:44;6.88;;;5.18;;
74632;SDS011;63139;52.018;8.552;2023-07-22T12:20:14;4.75;;;4.18;;
74632;SDS011;63139;52.018;8.552;2023-07-22T12:22:42;6.30;;;4.93;;
74632;SDS011;63139;52.018;8.552;2023-07-22T12:25:10;5.05;;;4.20;;
74632;SDS011;63139;52.018;8.552;2023-07-22T12:27:38;5.90;;;4.40;;
74632;SDS011;63139;52.018;8.552;2023-07-22T12:30:06;5.57;;;4.15;;
74632;SDS011;63139;52.018;8.552;2023-07-22T12:32:35;6.30;;;4.80;;
74632;SDS011;63139;52.018;8.552;2023-07-22T12:35:04;5.82;;;4.63;;
74632;SDS011;63139;52.018;8.552;2023-07-22T12:37:33;7.28;;;5.45;;
74632;SDS011;63139;52.018;8.552;2023-07-22T12:40:01;6.35;;;4.65;;
74632;SDS011;63139;52.018;8.552;2023-07-22T12:42:34;4.45;;;3.70;;
74632;SDS011;63139;52.018;8.552;2023-07-22T12:45:03;4.55;;;3.83;;
74632;SDS011;63139;52.018;8.552;2023-07-22T12:47:31;4.85;;;4.35;;
74632;SDS011;63139;52.018;8.552;2023-07-22T12:49:59;5.30;;;4.22;;
74632;SDS011;63139;52.018;8.552;2023-07-22T12:52:28;5.28;;;4.13;;
74632;SDS011;63139;52.018;8.552;2023-07-22T12:54:56;4.10;;;3.70;;
74632;SDS011;63139;52.018;8.552;2023-07-22T12:57:24;4.35;;;3.95;;
74632;SDS011;63139;52.018;8.552;2023-07-22T12:59:52;3.60;;;3.30;;
74632;SDS011;63139;52.018;8.552;2023-07-22T13:02:20;4.35;;;3.47;;
74632;SDS011;63139;52.018;8.552;2023-07-22T13:04:49;5.00;;;3.95;;
74632;SDS011;63139;52.018;8.552;2023-07-22T13:07:17;6.65;;;4.43;;
74632;SDS011;63139;52.018;8.552;2023-07-22T13:09:49;4.50;;;4.00;;
74632;SDS011;63139;52.018;8.552;2023-07-22T13:12:24;4.50;;;3.38;;
74632;SDS011;63139;52.018;8.552;2023-07-22T13:14:52;4.72;;;4.22;;
74632;SDS011;63139;52.018;8.552;2023-07-22T13:17:20;4.63;;;3.95;;
74632;SDS011;63139;52.018;8.552;2023-07-22T13:19:48;4.95;;;3.95;;
74632;SDS011;63139;52.018;8.552;2023-07-22T13:22:16;6.43;;;3.50;;
74632;SDS011;63139;52.018;8.552;2023-07-22T13:24:43;5.03;;;3.08;;
74632;SDS011;63139;52.018;8.552;2023-07-22T13:27:13;4.40;;;3.20;;
74632;SDS011;63139;52.018;8.552;2023-07-22T13:29:41;5.32;;;3.70;;
74632;SDS011;63139;52.018;8.552;2023-07-22T13:32:08;3.75;;;3.10;;
74632;SDS011;63139;52.018;8.552;2023-07-22T13:34:36;7.43;;;3.55;;
74632;SDS011;63139;52.018;8.552;2023-07-22T13:37:07;4.00;;;3.60;;
74632;SDS011;63139;52.018;8.552;2023-07-22T13:39:34;7.05;;;3.95;;
74632;SDS011;63139;52.018;8.552;2023-07-22T13:42:02;4.47;;;3.30;;
74632;SDS011;63139;52.018;8.552;2023-07-22T13:44:32;5.07;;;3.53;;
74632;SDS011;63139;52.018;8.552;2023-07-22T13:47:00;4.93;;;3.50;;
74632;SDS011;63139;52.018;8.552;2023-07-22T13:49:28;6.80;;;3.85;;
74632;SDS011;63139;52.018;8.552;2023-07-22T13:51:56;4.25;;;3.10;;
74632;SDS011;63139;52.018;8.552;2023-07-22T13:54:24;7.18;;;3.65;;
74632;SDS011;63139;52.018;8.552;2023-07-22T13:56:52;4.03;;;3.30;;
74632;SDS011;63139;52.018;8.552;2023-07-22T13:59:19;5.00;;;3.70;;
74632;SDS011;63139;52.018;8.552;2023-07-22T14:01:49;5.43;;;3.63;;
74632;SDS011;63139;52.018;8.552;2023-07-22T14:04:17;5.97;;;3.53;;
74632;SDS011;63139;52.018;8.552;2023-07-22T14:06:45;4.45;;;3.65;;
74632;SDS011;63139;52.018;8.552;2023-07-22T14:09:12;6.18;;;3.60;;
74632;SDS011;63139;52.018;8.552;2023-07-22T14:11:40;4.05;;;3.00;;
74632;SDS011;63139;52.018;8.552;2023-07-22T14:14:08;3.53;;;3.20;;
74632;SDS011;63139;52.018;8.552;2023-07-22T14:16:36;3.78;;;3.38;;
74632;SDS011;63139;52.018;8.552;2023-07-22T14:19:05;4.40;;;3.50;;
74632;SDS011;63139;52.018;8.552;2023-07-22T14:21:33;5.20;;;3.63;;
74632;SDS011;63139;52.018;8.552;2023-07-22T14:24:01;4.03;;;3.05;;
74632;SDS011;63139;52.018;8.552;2023-07-22T14:26:29;3.75;;;3.38;;
74632;SDS011;63139;52.018;8.552;2023-07-22T14:28:57;5.15;;;3.53;;
74632;SDS011;63139;52.018;8.552;2023-07-22T14:31:25;4.60;;;3.20;;
74632;SDS011;63139;52.018;8.552;2023-07-22T14:33:53;3.80;;;3.40;;
74632;SDS011;63139;52.018;8.552;2023-07-22T14:36:22;3.95;;;3.38;;
74632;SDS011;63139;52.018;8.552;2023-07-22T14:38:51;3.05;;;2.75;;
74632;SDS011;63139;52.018;8.552;2023-07-22T14:41:20;3.60;;;3.05;;
74632;SDS011;63139;52.018;8.552;2023-07-22T14:43:48;3.72;;;3.00;;
74632;SDS011;63139;52.018;8.552;2023-07-22T14:46:16;5.20;;;2.90;;